Time;durP1;ratioP1;P1;durP2;ratioP2;P2;SDS_P1;SDS_P2;PMS_P1;PMS_P2;Temp;Humidity;BMP_temperature;BMP_pressure;BME280_temperature;BME280_humidity;BME280_pressure;Samples;Min_cycle;Max_cycle;Signal;HPM_P1;HPM_P2
2022/01/10 00:01:44;;;;;;;35.00;19.53;;;;;;;;;;778472;177;919272;-64
2022/01/10 00:04:09;;;;;;;33.33;19.93;;;;;;;;;;783680;177;918075;-63
2022/01/10 00:06:36;;;;;;;34.57;19.30;;;;;;;;;;785165;176;919215;-64
2022/01/10 00:09:01;;;;;;;38.27;20.33;;;;;;;;;;778457;179;918956;-63
2022/01/10 00:11:27;;;;;;;33.67;19.07;;;;;;;;;;781054;176;918928;-63
2022/01/10 00:13:53;;;;;;;36.87;19.73;;;;;;;;;;779609;177;918385;-63
2022/01/10 00:16:19;;;;;;;41.20;19.60;;;;;;;;;;786338;177;919012;-63
2022/01/10 00:18:44;;;;;;;31.70;19.43;;;;;;;;;;771227;180;919873;-64
2022/01/10 00:21:10;;;;;;;39.90;21.67;;;;;;;;;;770864;179;919434;-63
2022/01/10 00:23:36;;;;;;;34.57;20.80;;;;;;;;;;769717;180;918364;-63
2022/01/10 00:26:02;;;;;;;42.00;20.70;;;;;;;;;;751333;184;919055;-63
2022/01/10 00:28:28;;;;;;;37.80;21.43;;;;;;;;;;756440;183;919729;-64
2022/01/10 00:30:54;;;;;;;37.58;19.90;;;;;;;;;;774774;176;1021386;-64
2022/01/10 00:33:20;;;;;;;37.03;21.67;;;;;;;;;;793634;176;918768;-64
2022/01/10 00:35:47;;;;;;;39.63;21.90;;;;;;;;;;788968;176;918342;-63
2022/01/10 00:38:11;;;;;;;41.17;21.83;;;;;;;;;;784203;176;918863;-63
2022/01/10 00:40:39;;;;;;;43.10;21.17;;;;;;;;;;778508;180;919040;-63
2022/01/10 00:43:03;;;;;;;40.57;21.03;;;;;;;;;;760297;179;918980;-64
2022/01/10 00:45:29;;;;;;;43.73;21.20;;;;;;;;;;787012;176;919070;-62
2022/01/10 00:47:55;;;;;;;38.37;21.73;;;;;;;;;;782270;177;920675;-64
2022/01/10 00:50:21;;;;;;;43.55;23.30;;;;;;;;;;778608;178;918632;-63
2022/01/10 00:52:46;;;;;;;43.30;23.23;;;;;;;;;;790843;173;918291;-64
2022/01/10 00:55:12;;;;;;;47.33;22.47;;;;;;;;;;789012;175;918742;-63
2022/01/10 00:57:38;;;;;;;42.57;22.13;;;;;;;;;;789389;177;919311;-63
2022/01/10 01:00:05;;;;;;;43.90;21.87;;;;;;;;;;782341;177;919512;-64
2022/01/10 01:02:32;;;;;;;36.13;22.00;;;;;;;;;;784333;176;918675;-64
2022/01/10 01:04:57;;;;;;;41.85;23.30;;;;;;;;;;786972;177;918691;-63
2022/01/10 01:07:23;;;;;;;37.03;23.40;;;;;;;;;;779998;177;919715;-63
2022/01/10 01:09:59;;;;;;;42.60;22.80;;;;;;;;;;767887;179;919921;-63
2022/01/10 01:12:23;;;;;;;40.80;23.13;;;;;;;;;;783629;177;919647;-63
2022/01/10 01:25:09;;;;;;;38.85;20.85;;;;;;;;;;787554;176;919522;-64
2022/01/10 01:27:34;;;;;;;44.50;21.50;;;;;;;;;;771710;181;919539;-64
2022/01/10 01:30:00;;;;;;;48.60;26.80;;;;;;;;;;759717;184;919770;-64
2022/01/10 01:32:26;;;;;;;43.83;23.53;;;;;;;;;;764787;180;919325;-63
2022/01/10 01:34:56;;;;;;;46.07;23.90;;;;;;;;;;760341;181;919003;-63
2022/01/10 01:37:18;;;;;;;41.80;23.77;;;;;;;;;;765740;179;919172;-64
2022/01/10 01:39:44;;;;;;;43.97;24.27;;;;;;;;;;776584;177;919863;-64
2022/01/10 01:44:41;;;;;;;40.70;24.00;;;;;;;;;;775896;178;919384;-63
2022/01/10 01:47:07;;;;;;;51.57;24.47;;;;;;;;;;780006;176;1020952;-65
2022/01/10 01:49:33;;;;;;;45.67;25.27;;;;;;;;;;784111;177;919552;-63
2022/01/10 01:51:59;;;;;;;53.67;26.60;;;;;;;;;;778250;180;920076;-62
2022/01/10 01:54:25;;;;;;;46.97;24.33;;;;;;;;;;756752;184;1018332;-64
2022/01/10 01:56:51;;;;;;;39.33;21.83;;;;;;;;;;769167;180;915780;-64
2022/01/10 01:59:17;;;;;;;51.90;22.50;;;;;;;;;;771062;179;915772;-64
2022/01/10 02:01:43;;;;;;;50.00;24.63;;;;;;;;;;775009;179;918964;-63
2022/01/10 02:04:09;;;;;;;42.67;22.83;;;;;;;;;;760447;180;919884;-63
2022/01/10 02:06:35;;;;;;;48.47;24.33;;;;;;;;;;789239;176;920261;-64
2022/01/10 02:09:01;;;;;;;50.73;21.50;;;;;;;;;;770543;180;919964;-63
2022/01/10 02:11:26;;;;;;;42.13;22.95;;;;;;;;;;781648;176;918852;-65
2022/01/10 02:13:52;;;;;;;37.43;21.53;;;;;;;;;;779257;176;928599;-63
2022/01/10 02:16:22;;;;;;;42.97;24.90;;;;;;;;;;788292;178;919428;-63
2022/01/10 02:18:44;;;;;;;48.37;24.67;;;;;;;;;;777156;178;919303;-65
2022/01/10 02:21:10;;;;;;;44.67;23.93;;;;;;;;;;783786;176;1021612;-63
2022/01/10 02:23:36;;;;;;;44.77;23.03;;;;;;;;;;790098;176;919132;-64
2022/01/10 02:26:01;;;;;;;40.60;23.17;;;;;;;;;;784249;177;919727;-63
2022/01/10 02:28:27;;;;;;;39.73;22.67;;;;;;;;;;781017;177;917987;-63
2022/01/10 02:30:57;;;;;;;38.83;21.13;;;;;;;;;;780188;177;918614;-64
2022/01/10 02:33:23;;;;;;;44.20;23.90;;;;;;;;;;785125;176;910394;-64
2022/01/10 02:36:00;;;;;;;46.80;23.47;;;;;;;;;;771081;179;921978;-64
2022/01/10 02:38:14;;;;;;;49.20;23.90;;;;;;;;;;749061;182;920797;-64
2022/01/10 02:40:40;;;;;;;47.13;23.47;;;;;;;;;;781286;176;919118;-62
2022/01/10 02:43:06;;;;;;;50.55;25.33;;;;;;;;;;773907;179;918722;-64
2022/01/10 02:45:32;;;;;;;49.23;24.10;;;;;;;;;;765290;178;918900;-64
2022/01/10 02:47:58;;;;;;;50.63;23.87;;;;;;;;;;777969;177;914961;-62
2022/01/10 02:50:24;;;;;;;45.40;26.77;;;;;;;;;;776062;180;916525;-63
2022/01/10 02:52:49;;;;;;;50.20;26.30;;;;;;;;;;771944;179;1014302;-64
2022/01/10 02:55:15;;;;;;;42.30;23.43;;;;;;;;;;760100;183;916285;-64
2022/01/10 02:57:41;;;;;;;49.87;27.50;;;;;;;;;;760913;184;915828;-63
2022/01/10 03:00:16;;;;;;;55.43;25.63;;;;;;;;;;756651;183;916293;-64
2022/01/10 03:02:44;;;;;;;53.90;24.47;;;;;;;;;;754657;186;919568;-63
2022/01/10 03:05:09;;;;;;;53.60;27.10;;;;;;;;;;769970;178;919920;-64
2022/01/10 03:07:34;;;;;;;52.13;24.73;;;;;;;;;;770532;180;943277;-62
2022/01/10 03:10:00;;;;;;;59.53;25.80;;;;;;;;;;783754;176;919177;-63
2022/01/10 03:12:28;;;;;;;47.50;25.67;;;;;;;;;;781597;176;919334;-63
2022/01/10 03:14:52;;;;;;;60.37;28.67;;;;;;;;;;767101;180;918976;-63
2022/01/10 03:17:18;;;;;;;59.03;28.50;;;;;;;;;;776482;177;919021;-63
2022/01/10 03:19:44;;;;;;;48.10;26.73;;;;;;;;;;787801;177;950804;-64
2022/01/10 03:22:10;;;;;;;60.23;28.50;;;;;;;;;;776583;176;919682;-63
2022/01/10 03:24:36;;;;;;;49.57;24.70;;;;;;;;;;789355;177;918346;-63
2022/01/10 03:27:01;;;;;;;48.20;25.50;;;;;;;;;;777981;177;918346;-62
2022/01/10 03:29:27;;;;;;;59.63;27.37;;;;;;;;;;779518;177;917918;-63
2022/01/10 03:31:53;;;;;;;54.43;28.13;;;;;;;;;;792993;176;919409;-63
2022/01/10 03:34:19;;;;;;;54.10;28.20;;;;;;;;;;786338;177;919593;-63
2022/01/10 03:36:45;;;;;;;55.25;27.20;;;;;;;;;;783881;176;1020106;-63
2022/01/10 03:39:11;;;;;;;52.40;29.17;;;;;;;;;;782300;180;919513;-63
2022/01/10 03:41:37;;;;;;;62.33;28.47;;;;;;;;;;779162;177;919525;-63
2022/01/10 03:44:04;;;;;;;57.40;27.60;;;;;;;;;;779351;176;942962;-63
2022/01/10 03:46:32;;;;;;;63.37;29.40;;;;;;;;;;778669;177;918660;-63
2022/01/10 03:48:55;;;;;;;54.77;28.07;;;;;;;;;;789785;176;919230;-63
2022/01/10 03:51:21;;;;;;;58.43;28.00;;;;;;;;;;788737;176;919154;-63
2022/01/10 03:53:47;;;;;;;59.77;30.70;;;;;;;;;;780545;176;919057;-63
2022/01/10 03:56:13;;;;;;;63.83;26.70;;;;;;;;;;781244;179;924633;-63
2022/01/10 03:58:39;;;;;;;71.97;32.03;;;;;;;;;;784084;177;918652;-63
2022/01/10 04:01:05;;;;;;;73.63;31.50;;;;;;;;;;781291;177;919212;-63
2022/01/10 04:03:31;;;;;;;75.32;31.55;;;;;;;;;;783841;177;1021064;-63
2022/01/10 04:05:58;;;;;;;80.67;33.37;;;;;;;;;;785413;176;918486;-63
2022/01/10 04:08:22;;;;;;;77.40;33.30;;;;;;;;;;782557;176;1021830;-63
2022/01/10 04:10:48;;;;;;;79.95;33.55;;;;;;;;;;784614;176;919491;-62
2022/01/10 04:13:14;;;;;;;70.20;30.23;;;;;;;;;;786897;177;919828;-63
2022/01/10 04:15:40;;;;;;;76.03;32.63;;;;;;;;;;790011;176;918669;-63
2022/01/10 04:18:07;;;;;;;83.18;31.33;;;;;;;;;;770924;178;918778;-63
2022/01/10 04:20:32;;;;;;;74.83;32.10;;;;;;;;;;772510;180;920082;-63
2022/01/10 04:22:58;;;;;;;86.23;36.00;;;;;;;;;;783568;176;920085;-62
2022/01/10 04:25:24;;;;;;;75.57;33.83;;;;;;;;;;780899;176;918826;-64
2022/01/10 04:27:49;;;;;;;81.13;34.33;;;;;;;;;;783765;176;918818;-62
2022/01/10 04:30:15;;;;;;;87.20;37.63;;;;;;;;;;782127;177;919714;-63
2022/01/10 04:32:43;;;;;;;84.23;32.33;;;;;;;;;;784870;176;921156;-63
2022/01/10 04:35:07;;;;;;;90.27;36.63;;;;;;;;;;762732;180;918069;-63
2022/01/10 04:37:33;;;;;;;76.17;34.93;;;;;;;;;;780112;177;918750;-63
2022/01/10 04:39:59;;;;;;;79.67;32.87;;;;;;;;;;777095;177;918538;-63
2022/01/10 04:42:25;;;;;;;79.97;33.30;;;;;;;;;;780610;177;919192;-63
2022/01/10 04:44:51;;;;;;;85.93;35.70;;;;;;;;;;784613;177;921555;-63
2022/01/10 04:47:17;;;;;;;81.95;38.25;;;;;;;;;;782413;176;919371;-63
2022/01/10 04:50:04;;;;;;;85.60;33.80;;;;;;;;;;779611;176;918709;-63
2022/01/10 04:52:08;;;;;;;95.10;36.47;;;;;;;;;;767549;181;918244;-63
2022/01/10 04:54:34;;;;;;;69.27;33.87;;;;;;;;;;767086;179;919213;-63
2022/01/10 04:57:00;;;;;;;97.03;37.50;;;;;;;;;;790001;177;919072;-64
2022/01/10 04:59:26;;;;;;;83.40;33.10;;;;;;;;;;775497;181;616889;-63
2022/01/10 05:01:52;;;;;;;93.43;35.73;;;;;;;;;;783730;176;919178;-63
2022/01/10 05:04:18;;;;;;;95.33;34.93;;;;;;;;;;778156;177;919317;-63
2022/01/10 05:06:45;;;;;;;81.20;35.13;;;;;;;;;;776210;177;919127;-63
2022/01/10 05:09:09;;;;;;;95.77;36.20;;;;;;;;;;783008;179;642101;-63
2022/01/10 05:11:38;;;;;;;86.23;35.47;;;;;;;;;;769292;179;918484;-62
2022/01/10 05:14:01;;;;;;;97.07;37.25;;;;;;;;;;780854;177;913240;-63
2022/01/10 05:16:27;;;;;;;98.57;36.40;;;;;;;;;;791423;176;616899;-63
2022/01/10 05:18:53;;;;;;;86.10;35.13;;;;;;;;;;788560;177;627793;-63
2022/01/10 05:21:20;;;;;;;86.93;37.60;;;;;;;;;;791537;176;651214;-63
2022/01/10 05:23:44;;;;;;;98.80;36.87;;;;;;;;;;789844;176;634030;-63
2022/01/10 05:26:10;;;;;;;90.43;36.00;;;;;;;;;;784412;177;634451;-63
2022/01/10 05:28:36;;;;;;;102.93;39.23;;;;;;;;;;786035;177;625653;-63
2022/01/10 05:31:02;;;;;;;103.53;42.97;;;;;;;;;;786360;177;911663;-63
2022/01/10 05:33:28;;;;;;;94.40;43.07;;;;;;;;;;779342;176;919000;-63
2022/01/10 05:35:54;;;;;;;97.87;38.47;;;;;;;;;;784034;176;918847;-63
2022/01/10 05:38:19;;;;;;;102.40;43.47;;;;;;;;;;783452;176;920002;-62
2022/01/10 05:40:45;;;;;;;101.13;38.50;;;;;;;;;;786306;177;639446;-62
2022/01/10 05:43:11;;;;;;;86.97;36.77;;;;;;;;;;778824;176;918617;-62
2022/01/10 05:45:37;;;;;;;82.73;35.60;;;;;;;;;;785850;176;627591;-63
2022/01/10 05:48:09;;;;;;;80.60;37.20;;;;;;;;;;792671;176;919131;-62
2022/01/10 05:50:34;;;;;;;133.47;52.43;;;;;;;;;;781028;176;918832;-62
2022/01/10 05:52:56;;;;;;;84.30;38.60;;;;;;;;;;783907;177;918647;-62
2022/01/10 05:55:22;;;;;;;108.10;43.77;;;;;;;;;;786621;177;616845;-63
2022/01/10 05:57:48;;;;;;;110.53;41.43;;;;;;;;;;776063;179;629148;-63
2022/01/10 06:00:14;;;;;;;127.85;52.53;;;;;;;;;;780468;177;918827;-62
2022/01/10 06:02:40;;;;;;;209.13;93.53;;;;;;;;;;780353;177;918032;-63
2022/01/10 06:05:09;;;;;;;122.77;50.40;;;;;;;;;;782942;177;918945;-63
2022/01/10 06:07:32;;;;;;;143.60;60.10;;;;;;;;;;781059;177;920584;-62
2022/01/10 06:09:58;;;;;;;113.23;48.83;;;;;;;;;;779415;177;919348;-61
2022/01/10 06:12:24;;;;;;;103.77;43.90;;;;;;;;;;776403;179;920968;-63
2022/01/10 06:14:49;;;;;;;94.93;41.90;;;;;;;;;;770484;179;919636;-62
2022/01/10 06:17:15;;;;;;;91.70;40.67;;;;;;;;;;789928;175;915851;-63
2022/01/10 06:19:41;;;;;;;133.00;53.67;;;;;;;;;;771214;181;916424;-62
2022/01/10 06:22:07;;;;;;;113.63;47.60;;;;;;;;;;786290;176;921903;-62
2022/01/10 06:24:33;;;;;;;135.77;56.43;;;;;;;;;;781141;176;919046;-63
2022/01/10 06:26:59;;;;;;;114.90;49.43;;;;;;;;;;782680;176;917800;-63
2022/01/10 06:29:25;;;;;;;90.93;41.27;;;;;;;;;;785557;177;919618;-62
2022/01/10 06:31:50;;;;;;;127.13;49.70;;;;;;;;;;778266;176;916917;-62
2022/01/10 06:34:18;;;;;;;89.20;41.20;;;;;;;;;;780264;176;914511;-63
2022/01/10 06:36:42;;;;;;;107.23;45.93;;;;;;;;;;787479;177;912161;-62
2022/01/10 06:39:08;;;;;;;89.03;39.50;;;;;;;;;;772863;180;917762;-62
2022/01/10 06:41:34;;;;;;;111.97;44.23;;;;;;;;;;763214;180;911613;-61
2022/01/10 06:44:00;;;;;;;98.70;39.73;;;;;;;;;;787179;177;907555;-62
2022/01/10 06:46:25;;;;;;;97.47;41.92;;;;;;;;;;777971;176;910117;-63
2022/01/10 06:48:51;;;;;;;113.07;43.13;;;;;;;;;;776956;177;916335;-62
2022/01/10 06:51:17;;;;;;;104.13;41.40;;;;;;;;;;779550;176;918853;-61
2022/01/10 06:53:43;;;;;;;92.40;39.60;;;;;;;;;;787520;176;919094;-62
2022/01/10 06:56:09;;;;;;;98.00;44.33;;;;;;;;;;781046;176;913306;-62
2022/01/10 06:58:35;;;;;;;107.20;41.57;;;;;;;;;;779549;176;919229;-62
2022/01/10 07:01:01;;;;;;;117.13;45.40;;;;;;;;;;782587;177;920020;-63
2022/01/10 07:03:26;;;;;;;98.65;43.30;;;;;;;;;;789436;177;919622;-64
2022/01/10 07:05:52;;;;;;;133.83;48.63;;;;;;;;;;782817;176;920601;-62
2022/01/10 07:08:19;;;;;;;115.00;44.60;;;;;;;;;;767911;184;940193;-61
2022/01/10 07:10:44;;;;;;;115.90;50.17;;;;;;;;;;774640;177;919375;-63
2022/01/10 07:13:10;;;;;;;122.67;50.10;;;;;;;;;;788392;177;919547;-63
2022/01/10 07:15:36;;;;;;;129.23;54.13;;;;;;;;;;780176;177;919757;-62
2022/01/10 07:18:02;;;;;;;116.87;48.53;;;;;;;;;;790971;177;919398;-63
2022/01/10 07:20:27;;;;;;;118.53;49.67;;;;;;;;;;774048;179;919911;-63
2022/01/10 07:22:53;;;;;;;127.45;49.35;;;;;;;;;;779403;177;920649;-63
2022/01/10 07:25:19;;;;;;;103.10;45.13;;;;;;;;;;777136;180;920062;-62
2022/01/10 07:27:45;;;;;;;105.73;43.27;;;;;;;;;;779529;176;922849;-63
2022/01/10 07:30:11;;;;;;;108.73;42.30;;;;;;;;;;777976;177;919044;-63
2022/01/10 07:32:37;;;;;;;117.77;49.50;;;;;;;;;;781314;177;918705;-63
2022/01/10 07:35:03;;;;;;;128.20;50.93;;;;;;;;;;772704;177;1043529;-63
2022/01/10 07:37:28;;;;;;;138.83;62.57;;;;;;;;;;780119;175;919432;-62
2022/01/10 07:39:54;;;;;;;119.60;51.30;;;;;;;;;;786111;176;919365;-63
2022/01/10 07:42:20;;;;;;;105.30;46.00;;;;;;;;;;782731;176;919509;-62
2022/01/10 07:44:46;;;;;;;119.97;49.53;;;;;;;;;;782343;176;918407;-63
2022/01/10 07:47:12;;;;;;;146.43;58.20;;;;;;;;;;783927;178;632225;-62
2022/01/10 07:49:38;;;;;;;103.30;45.83;;;;;;;;;;791352;176;624308;-63
2022/01/10 07:52:04;;;;;;;112.77;49.37;;;;;;;;;;771478;180;917362;-63
2022/01/10 07:54:29;;;;;;;159.23;67.33;;;;;;;;;;764001;184;628326;-63
2022/01/10 07:56:55;;;;;;;117.82;52.80;;;;;;;;;;760318;183;920656;-63
2022/01/10 07:59:22;;;;;;;280.20;118.10;;;;;;;;;;775113;178;905342;-63
2022/01/10 08:01:47;;;;;;;183.90;81.40;;;;;;;;;;785756;176;919237;-63
2022/01/10 08:04:13;;;;;;;157.57;70.77;;;;;;;;;;769665;180;919283;-63
2022/01/10 08:06:39;;;;;;;127.10;54.10;;;;;;;;;;764616;180;919088;-63
2022/01/10 08:09:06;;;;;;;158.17;60.83;;;;;;;;;;780918;179;919026;-62
2022/01/10 08:11:30;;;;;;;96.53;44.27;;;;;;;;;;778869;177;1021909;-63
2022/01/10 08:13:56;;;;;;;118.27;49.67;;;;;;;;;;769471;179;919380;-63
2022/01/10 08:16:22;;;;;;;139.77;57.90;;;;;;;;;;765276;179;919041;-63
2022/01/10 08:18:48;;;;;;;125.07;51.77;;;;;;;;;;785407;177;919825;-63
2022/01/10 08:21:14;;;;;;;110.30;44.43;;;;;;;;;;783951;177;918737;-62
2022/01/10 08:23:40;;;;;;;107.20;45.47;;;;;;;;;;778289;177;918839;-64
2022/01/10 08:26:08;;;;;;;111.03;42.27;;;;;;;;;;787733;176;918341;-63
2022/01/10 08:28:31;;;;;;;104.43;44.83;;;;;;;;;;775091;180;920506;-64
2022/01/10 08:30:57;;;;;;;93.37;39.47;;;;;;;;;;767429;180;919463;-64
2022/01/10 08:33:23;;;;;;;88.40;40.65;;;;;;;;;;779567;177;918542;-64
2022/01/10 08:35:51;;;;;;;95.12;39.20;;;;;;;;;;789204;176;919963;-63
2022/01/10 08:38:15;;;;;;;107.07;51.20;;;;;;;;;;775468;176;919798;-64
2022/01/10 08:40:41;;;;;;;113.83;48.17;;;;;;;;;;777194;176;919626;-64
2022/01/10 08:43:10;;;;;;;104.93;49.35;;;;;;;;;;779670;176;919055;-64
2022/01/10 08:45:33;;;;;;;146.13;57.87;;;;;;;;;;773746;181;918716;-65
2022/01/10 08:47:59;;;;;;;140.83;59.80;;;;;;;;;;778296;176;919195;-65
2022/01/10 08:50:26;;;;;;;99.32;43.83;;;;;;;;;;794040;174;919441;-65
2022/01/10 08:52:50;;;;;;;74.53;37.03;;;;;;;;;;770413;180;919023;-64
2022/01/10 08:55:18;;;;;;;99.67;47.20;;;;;;;;;;784006;176;918983;-65
2022/01/10 08:57:42;;;;;;;59.37;27.30;;;;;;;;;;784742;176;918735;-64
2022/01/10 09:00:09;;;;;;;93.73;47.93;;;;;;;;;;787387;176;919357;-65
2022/01/10 09:02:34;;;;;;;104.83;44.40;;;;;;;;;;786619;176;919071;-64
2022/01/10 09:05:00;;;;;;;89.20;45.93;;;;;;;;;;789810;176;919785;-62
2022/01/10 09:07:26;;;;;;;75.60;39.20;;;;;;;;;;780462;176;919538;-63
2022/01/10 09:09:52;;;;;;;95.63;43.10;;;;;;;;;;783881;176;919841;-65
2022/01/10 09:12:18;;;;;;;98.80;42.08;;;;;;;;;;785278;177;920591;-65
2022/01/10 09:14:44;;;;;;;85.40;39.03;;;;;;;;;;781961;177;917944;-65
2022/01/10 09:17:09;;;;;;;73.23;34.20;;;;;;;;;;786186;177;928833;-65
2022/01/10 09:19:35;;;;;;;82.70;36.50;;;;;;;;;;781030;176;918761;-66
2022/01/10 09:22:01;;;;;;;71.73;27.97;;;;;;;;;;767886;179;919308;-65
2022/01/10 09:24:27;;;;;;;66.87;31.77;;;;;;;;;;777487;180;919573;-65
2022/01/10 09:26:53;;;;;;;65.93;28.20;;;;;;;;;;768668;179;1021681;-65
2022/01/10 09:29:19;;;;;;;61.37;33.23;;;;;;;;;;761828;183;943508;-65
2022/01/10 09:31:45;;;;;;;69.67;32.57;;;;;;;;;;752745;184;933637;-65
2022/01/10 09:34:10;;;;;;;75.93;30.10;;;;;;;;;;750183;185;919285;-64
2022/01/10 09:36:36;;;;;;;57.97;25.57;;;;;;;;;;769691;179;918730;-65
2022/01/10 09:39:02;;;;;;;62.60;33.97;;;;;;;;;;777092;178;919453;-65
2022/01/10 09:41:28;;;;;;;65.80;29.10;;;;;;;;;;784223;177;918895;-64
2022/01/10 09:43:56;;;;;;;73.87;33.13;;;;;;;;;;782320;176;919963;-65
2022/01/10 09:46:20;;;;;;;36.10;18.73;;;;;;;;;;788821;174;919030;-66
2022/01/10 09:48:45;;;;;;;58.33;31.27;;;;;;;;;;766204;181;916884;-65
2022/01/10 09:51:11;;;;;;;66.25;32.75;;;;;;;;;;782012;176;919728;-64
2022/01/10 09:53:37;;;;;;;63.93;32.63;;;;;;;;;;775629;177;2147628;-64
2022/01/10 09:56:03;;;;;;;48.17;28.47;;;;;;;;;;782484;177;919811;-65
2022/01/10 09:58:29;;;;;;;76.53;33.33;;;;;;;;;;777130;180;916509;-64
2022/01/10 10:00:55;;;;;;;74.20;36.30;;;;;;;;;;774303;177;920055;-64
2022/01/10 10:03:21;;;;;;;74.03;30.77;;;;;;;;;;788501;175;918106;-63
2022/01/10 10:05:47;;;;;;;79.60;33.25;;;;;;;;;;786477;176;920064;-64
2022/01/10 10:08:12;;;;;;;75.03;36.40;;;;;;;;;;779374;176;919021;-65
2022/01/10 10:10:38;;;;;;;94.43;42.55;;;;;;;;;;780028;176;919289;-65
2022/01/10 10:13:04;;;;;;;79.07;38.50;;;;;;;;;;785351;176;920192;-64
2022/01/10 10:15:32;;;;;;;84.33;38.10;;;;;;;;;;778963;176;920396;-64
2022/01/10 10:17:56;;;;;;;78.80;37.10;;;;;;;;;;779258;176;919481;-65
2022/01/10 10:20:22;;;;;;;71.10;30.43;;;;;;;;;;788249;176;921424;-65
2022/01/10 10:22:49;;;;;;;77.90;33.83;;;;;;;;;;784148;177;921275;-65
2022/01/10 10:25:14;;;;;;;74.10;34.40;;;;;;;;;;780731;176;918996;-66
2022/01/10 10:27:39;;;;;;;97.57;39.23;;;;;;;;;;781134;177;919620;-65
2022/01/10 10:30:06;;;;;;;58.93;26.60;;;;;;;;;;758062;183;916241;-66
2022/01/10 10:32:32;;;;;;;68.47;32.03;;;;;;;;;;781232;176;914262;-64
2022/01/10 10:34:58;;;;;;;35.13;18.80;;;;;;;;;;764462;181;913846;-66
2022/01/10 10:37:26;;;;;;;54.40;29.67;;;;;;;;;;786015;177;918186;-66
2022/01/10 10:39:50;;;;;;;64.27;31.13;;;;;;;;;;786595;176;918916;-66
2022/01/10 10:42:15;;;;;;;52.93;21.27;;;;;;;;;;767846;183;919699;-65
2022/01/10 10:44:42;;;;;;;46.17;23.47;;;;;;;;;;769874;181;919423;-66
2022/01/10 10:47:08;;;;;;;33.70;18.63;;;;;;;;;;757420;183;918517;-66
2022/01/10 10:49:38;;;;;;;41.43;19.10;;;;;;;;;;780506;176;918448;-66
2022/01/10 10:52:00;;;;;;;51.93;24.87;;;;;;;;;;789099;175;919282;-66
2022/01/10 10:54:28;;;;;;;44.10;23.00;;;;;;;;;;786059;176;919795;-66
2022/01/10 10:56:52;;;;;;;40.00;23.17;;;;;;;;;;777926;177;918465;-65
2022/01/10 10:59:18;;;;;;;47.37;25.57;;;;;;;;;;783561;177;926403;-66
2022/01/10 11:01:44;;;;;;;48.47;22.80;;;;;;;;;;768279;181;918831;-66
2022/01/10 11:04:10;;;;;;;49.17;23.98;;;;;;;;;;783556;177;945075;-65
2022/01/10 11:06:35;;;;;;;51.43;24.63;;;;;;;;;;779770;177;919625;-66
2022/01/10 11:09:03;;;;;;;39.13;19.00;;;;;;;;;;771450;181;1021808;-65
2022/01/10 11:11:29;;;;;;;25.90;14.47;;;;;;;;;;779188;176;1020952;-64
2022/01/10 11:13:56;;;;;;;47.70;25.20;;;;;;;;;;781474;177;920654;-65
2022/01/10 11:16:22;;;;;;;22.53;10.80;;;;;;;;;;779493;176;918173;-66
2022/01/10 11:18:47;;;;;;;32.60;16.50;;;;;;;;;;785795;176;917245;-66
2022/01/10 11:21:13;;;;;;;37.90;19.77;;;;;;;;;;778855;176;918455;-66
2022/01/10 11:23:39;;;;;;;38.30;20.27;;;;;;;;;;783269;176;920694;-66
2022/01/10 11:26:06;;;;;;;37.60;16.50;;;;;;;;;;784917;177;918861;-67
2022/01/10 11:28:32;;;;;;;77.23;34.53;;;;;;;;;;784332;176;919262;-65
2022/01/10 11:30:59;;;;;;;40.53;22.50;;;;;;;;;;783115;175;919728;-65
2022/01/10 11:33:26;;;;;;;55.33;23.30;;;;;;;;;;781699;176;919468;-64
2022/01/10 11:35:54;;;;;;;33.00;19.60;;;;;;;;;;789780;176;957921;-66
2022/01/10 11:38:20;;;;;;;52.90;23.47;;;;;;;;;;785168;176;918824;-66
2022/01/10 11:40:47;;;;;;;65.57;27.93;;;;;;;;;;780735;177;920905;-66
2022/01/10 11:43:13;;;;;;;62.72;30.23;;;;;;;;;;785754;177;918871;-66
2022/01/10 11:45:40;;;;;;;36.63;15.60;;;;;;;;;;769797;176;918282;-66
2022/01/10 11:48:14;;;;;;;52.00;24.70;;;;;;;;;;787509;177;919244;-63
2022/01/10 11:50:40;;;;;;;47.87;23.90;;;;;;;;;;775800;176;961457;-66
2022/01/10 11:53:06;;;;;;;55.47;25.03;;;;;;;;;;768773;181;919163;-66
2022/01/10 11:55:32;;;;;;;52.53;29.00;;;;;;;;;;762523;183;919337;-65
2022/01/10 11:58:17;;;;;;;72.37;36.50;;;;;;;;;;763800;180;918780;-64
2022/01/10 12:00:43;;;;;;;58.27;26.87;;;;;;;;;;779344;177;918688;-64
2022/01/10 12:03:09;;;;;;;40.37;20.27;;;;;;;;;;787013;177;920246;-63
2022/01/10 12:05:34;;;;;;;49.20;21.57;;;;;;;;;;780031;176;919303;-64
2022/01/10 12:08:03;;;;;;;82.60;46.97;;;;;;;;;;782253;177;919858;-64
2022/01/10 12:10:29;;;;;;;71.97;36.97;;;;;;;;;;777219;176;918860;-65
2022/01/10 12:13:02;;;;;;;76.73;36.07;;;;;;;;;;780921;176;930710;-65
2022/01/10 12:15:26;;;;;;;46.13;24.30;;;;;;;;;;779218;176;889677;-63
2022/01/10 12:17:52;;;;;;;60.80;28.83;;;;;;;;;;787187;176;1021310;-63
2022/01/10 12:20:18;;;;;;;38.70;16.57;;;;;;;;;;777959;176;918805;-63
2022/01/10 12:22:44;;;;;;;34.83;16.43;;;;;;;;;;786804;176;922204;-64
2022/01/10 12:25:10;;;;;;;45.00;21.42;;;;;;;;;;783738;176;918330;-63
2022/01/10 12:27:36;;;;;;;49.17;29.90;;;;;;;;;;780671;176;919298;-64
2022/01/10 12:30:02;;;;;;;36.43;20.60;;;;;;;;;;786814;176;918076;-64
2022/01/10 12:32:28;;;;;;;81.17;30.53;;;;;;;;;;782188;176;919177;-63
2022/01/10 12:34:54;;;;;;;82.00;32.40;;;;;;;;;;778733;176;918380;-64
2022/01/10 12:37:19;;;;;;;72.00;37.23;;;;;;;;;;785203;176;918662;-65
2022/01/10 12:39:45;;;;;;;54.43;24.10;;;;;;;;;;767987;179;919108;-64
2022/01/10 12:42:12;;;;;;;67.53;34.07;;;;;;;;;;753641;184;919050;-64
2022/01/10 12:44:38;;;;;;;75.65;37.65;;;;;;;;;;785437;178;924107;-63
2022/01/10 12:47:04;;;;;;;58.20;33.50;;;;;;;;;;781426;179;919544;-63
2022/01/10 12:49:29;;;;;;;61.23;31.50;;;;;;;;;;784577;176;919064;-65
2022/01/10 12:51:55;;;;;;;60.40;26.40;;;;;;;;;;779526;176;1036458;-66
2022/01/10 12:54:21;;;;;;;57.03;26.50;;;;;;;;;;787588;177;919467;-65
2022/01/10 12:56:47;;;;;;;75.50;37.40;;;;;;;;;;780444;177;918502;-64
2022/01/10 12:59:13;;;;;;;52.17;28.63;;;;;;;;;;781054;179;919160;-64
2022/01/10 13:01:39;;;;;;;77.73;33.57;;;;;;;;;;782783;179;918372;-62
2022/01/10 13:04:05;;;;;;;92.97;40.67;;;;;;;;;;779394;177;919540;-64
2022/01/10 13:06:30;;;;;;;58.43;33.40;;;;;;;;;;779913;177;919049;-63
2022/01/10 13:08:56;;;;;;;56.60;28.67;;;;;;;;;;784222;176;918380;-64
2022/01/10 13:11:29;;;;;;;48.37;25.87;;;;;;;;;;779890;177;919512;-64
2022/01/10 13:13:48;;;;;;;48.92;23.48;;;;;;;;;;790222;176;918624;-64
2022/01/10 13:16:20;;;;;;;66.00;35.00;;;;;;;;;;784268;177;1019739;-63
2022/01/10 13:19:00;;;;;;;49.97;27.23;;;;;;;;;;787665;177;919770;-63
2022/01/10 13:21:26;;;;;;;76.13;34.73;;;;;;;;;;789745;177;915542;-64
2022/01/10 13:23:52;;;;;;;64.97;30.35;;;;;;;;;;781551;176;918861;-64
2022/01/10 13:26:24;;;;;;;69.67;29.10;;;;;;;;;;779746;177;941637;-64
2022/01/10 13:28:44;;;;;;;66.57;29.83;;;;;;;;;;772357;181;1021993;-64
2022/01/10 13:31:09;;;;;;;81.43;38.20;;;;;;;;;;781551;177;920665;-67
2022/01/10 13:33:37;;;;;;;68.90;36.13;;;;;;;;;;779506;177;919927;-64
2022/01/10 13:36:01;;;;;;;45.78;24.83;;;;;;;;;;782356;176;918944;-62
2022/01/10 13:38:27;;;;;;;76.90;39.83;;;;;;;;;;790462;175;1015815;-65
2022/01/10 13:40:53;;;;;;;81.67;42.63;;;;;;;;;;781526;176;915712;-65
2022/01/10 13:43:20;;;;;;;75.10;34.17;;;;;;;;;;780352;176;1017370;-64
2022/01/10 13:45:53;;;;;;;68.53;36.47;;;;;;;;;;784681;177;918398;-64
2022/01/10 13:48:20;;;;;;;70.03;34.93;;;;;;;;;;783722;176;920274;-64
2022/01/10 13:50:47;;;;;;;111.83;48.83;;;;;;;;;;781123;177;919415;-64
2022/01/10 13:53:14;;;;;;;116.87;50.97;;;;;;;;;;783228;177;919092;-64
2022/01/10 13:55:40;;;;;;;153.40;63.13;;;;;;;;;;773043;181;919342;-63
2022/01/10 13:58:08;;;;;;;75.13;38.70;;;;;;;;;;781461;176;919717;-64
2022/01/10 14:00:32;;;;;;;52.90;25.90;;;;;;;;;;779327;176;919121;-66
2022/01/10 14:02:58;;;;;;;57.07;32.20;;;;;;;;;;787041;177;920031;-64
2022/01/10 14:05:26;;;;;;;60.90;30.40;;;;;;;;;;777468;176;919113;-64
2022/01/10 14:07:51;;;;;;;60.30;28.87;;;;;;;;;;780808;177;919159;-65